New York, NY

1:06 PM EST on January 18, 2018 (GMT -0500)
Roof of a 1 story trailer | | Change Station

Elev 0 ft 40.75 °N, 74.01 °W | Updated 3 seconds ago

Light Snow
Light Snow
29.4 °F
Feels Like 19 °F
N
13.5
Wind Variable Wind from SW
Gusts 15.0 mph

Today
High -- | Low -- °F
--% Chance of Precip.
Yesterday
High -- | Low -- °F
Precip. -- in
Pressure 29.96 in
Visibility 10.0 miles
Clouds Clear
Windchill 19 °F
Dew Point 14 °F
Humidity 51%
Rainfall 0.00 in
Snow Depth Not available.
7:16 AM 4:56 PM
New Moon, 2% visible
METAR KNYC 181751Z AUTO 32008G17KT 290V360 10SM -SN CLR M01/M14 A2997 RMK AO2 SNB48 SLP143 P0000 60000 T10111139 11011 21067 58033 $
Pressure 29.96 in
Visibility 10.0 miles
Clouds Clear
Windchill 19 °F
Dew Point 14 °F
Humidity 51%
Rainfall 0.00 in
Snow Depth Not available.
7:16 AM 4:56 PM
New Moon, 2% visible
METAR KNYC 181751Z AUTO 32008G17KT 290V360 10SM -SN CLR M01/M14 A2997 RMK AO2 SNB48 SLP143 P0000 60000 T10111139 11011 21067 58033 $

Get Severe Weather Alerts

Thanks for signing up!

Be on the lookout for a verification email in your inbox.

You'll start receiving the daily forecast at 6 AM.

×

10-Day Weather Forecast

Almanac

Astronomy

Jan. 18, 2018 Rise Set
Actual Time
Civil Twilight
Nautical Twilight
Astronomical Twilight
Moon
Length of Visible Light
Length of Day
Tomorrow will be .
, % of the Moon is Illuminated

Today's Extremes

State Highs State Lows

Community

WunderPhotos

Category 6

Welcome to Category 6. This is the collective home for Weather Underground's featured writeups by Dr. Jeff Masters (right), Bob Henson (left), Chris Burt, and other regular contributors.

Nearby

Air Quality

  Air Quality AQ Index Pollutant
Not available.

Snow Depth

Station Depth Elevation

Earthquake Activity

City Distance Mag. Time & Date
Minimum magnitude displayed is 2.5.

Coastal Water Temperatures

Place Temperature

Stations

Nearby Weather Stations

Station Location Temp. Windchill Dew Point Humidity Wind Precip. Elev Updated Type
                   

Watches & Warnings

There are currently no watches in effect.